createdAt,value
2023-05-25T00:00:28.502Z,49.63
2023-05-25T00:03:07.890Z,48.27
2023-05-25T00:05:42.997Z,48.27
2023-05-25T00:08:23.954Z,47.07
2023-05-25T00:11:04.062Z,49.67
2023-05-25T00:13:38.471Z,48.90
2023-05-25T00:16:15.924Z,50.37
2023-05-25T00:18:54.416Z,50.57
2023-05-25T00:21:31.669Z,48.87
2023-05-25T00:24:06.280Z,47.30
2023-05-25T00:26:45.564Z,48.83
2023-05-25T00:29:20.944Z,51.37
2023-05-25T00:31:56.557Z,54.23
2023-05-25T00:34:34.475Z,51.40
2023-05-25T00:37:14.104Z,53.37
2023-05-25T00:39:49.972Z,53.73
2023-05-25T00:42:31.615Z,53.47
2023-05-25T00:45:07.953Z,55.43
2023-05-25T00:47:45.630Z,54.10
2023-05-25T00:50:23.517Z,53.50
2023-05-25T00:53:03.014Z,56.30
2023-05-25T00:55:45.716Z,54.30
2023-05-25T00:58:27.409Z,54.73
2023-05-25T01:01:06.734Z,55.20
2023-05-25T01:03:43.742Z,52.57
2023-05-25T01:06:22.653Z,57.13
2023-05-25T01:09:03.500Z,56.53
2023-05-25T01:11:42.715Z,56.63
2023-05-25T01:14:27.856Z,57.53
2023-05-25T01:17:06.812Z,55.77
2023-05-25T01:19:54.771Z,58.50
2023-05-25T01:22:46.873Z,59.60
2023-05-25T01:25:30.290Z,65.00
2023-05-25T01:28:17.046Z,64.83
2023-05-25T01:30:57.596Z,64.80
2023-05-25T01:33:36.725Z,66.47
2023-05-25T01:36:14.524Z,66.03
2023-05-25T01:39:02.189Z,69.23
2023-05-25T01:41:39.111Z,66.83
2023-05-25T01:44:18.531Z,68.70
2023-05-25T01:47:02.353Z,66.33
2023-05-25T01:49:54.666Z,70.47
2023-05-25T01:52:38.245Z,67.87
2023-05-25T01:55:25.356Z,70.83
2023-05-25T01:58:05.213Z,69.10
2023-05-25T02:00:45.938Z,69.77
2023-05-25T02:03:22.071Z,66.63
2023-05-25T02:05:59.387Z,70.53
2023-05-25T02:08:37.558Z,70.23
2023-05-25T02:11:19.407Z,66.97
2023-05-25T02:13:57.755Z,69.27
2023-05-25T02:16:35.925Z,66.73
2023-05-25T02:19:14.515Z,64.43
2023-05-25T02:21:51.003Z,64.90
2023-05-25T02:24:29.460Z,62.90
2023-05-25T02:27:16.591Z,63.43
2023-05-25T02:29:55.955Z,61.53
2023-05-25T02:32:35.937Z,63.43
2023-05-25T02:35:16.043Z,60.63
2023-05-25T02:37:55.086Z,60.20
2023-05-25T02:40:34.520Z,61.53
2023-05-25T02:43:15.227Z,58.17
2023-05-25T02:45:55.233Z,62.27
2023-05-25T02:48:44.124Z,59.00
2023-05-25T02:51:20.514Z,58.60
2023-05-25T02:53:58.743Z,57.63
2023-05-25T02:56:35.207Z,58.13
2023-05-25T02:59:17.230Z,60.57
2023-05-25T03:01:53.660Z,59.80
2023-05-25T03:04:38.245Z,59.73
2023-05-25T03:07:15.634Z,56.30
2023-05-25T03:09:53.848Z,57.50
2023-05-25T03:12:31.782Z,56.63
2023-05-25T03:15:15.095Z,57.37
2023-05-25T03:17:51.638Z,54.60
2023-05-25T03:20:29.012Z,53.77
2023-05-25T03:23:04.702Z,56.03
2023-05-25T03:25:46.188Z,55.50
2023-05-25T03:28:23.764Z,55.37
2023-05-25T03:31:07.782Z,56.70
2023-05-25T03:33:48.129Z,56.07
2023-05-25T03:36:28.795Z,54.13
2023-05-25T03:39:12.591Z,54.03
2023-05-25T03:41:48.343Z,54.87
2023-05-25T03:44:28.419Z,50.33
2023-05-25T03:47:12.575Z,53.37
2023-05-25T03:49:47.806Z,52.33
2023-05-25T03:52:24.335Z,52.90
2023-05-25T03:55:00.368Z,53.03
2023-05-25T03:57:39.303Z,51.57
2023-05-25T04:00:15.561Z,47.70
2023-05-25T04:02:54.058Z,50.07
2023-05-25T04:05:30.507Z,52.17
2023-05-25T04:08:05.822Z,52.93
2023-05-25T04:10:44.983Z,53.17
2023-05-25T04:13:22.538Z,53.80
2023-05-25T04:16:00.977Z,48.20
2023-05-25T04:18:47.156Z,48.70
2023-05-25T04:21:25.519Z,45.63
2023-05-25T04:24:12.568Z,46.33
2023-05-25T04:26:51.709Z,49.37
2023-05-25T04:29:33.788Z,49.37
2023-05-25T04:32:34.169Z,48.33
2023-05-25T04:35:36.521Z,47.70
2023-05-25T04:38:20.310Z,50.60
2023-05-25T04:41:00.862Z,47.87
2023-05-25T04:43:52.626Z,45.60
2023-05-25T04:46:40.948Z,45.83
2023-05-25T04:49:23.067Z,47.33
2023-05-25T04:52:04.007Z,46.33
2023-05-25T04:54:48.909Z,45.43
2023-05-25T04:57:44.145Z,46.80
2023-05-25T05:00:33.276Z,45.83
2023-05-25T05:03:54.923Z,40.63
2023-05-25T05:06:53.160Z,39.17
2023-05-25T05:09:45.986Z,38.83
2023-05-25T05:12:41.538Z,38.33
2023-05-25T05:15:19.991Z,39.87
2023-05-25T05:17:58.056Z,38.37
2023-05-25T05:20:38.444Z,38.37
2023-05-25T05:23:17.178Z,39.80
2023-05-25T05:26:04.692Z,41.17
2023-05-25T05:28:42.242Z,42.47
2023-05-25T05:31:22.196Z,40.93
2023-05-25T05:34:01.014Z,38.67
2023-05-25T05:36:45.278Z,39.73
2023-05-25T05:39:30.870Z,38.97
2023-05-25T05:42:13.025Z,39.83
2023-05-25T05:44:51.912Z,37.10
2023-05-25T05:47:34.342Z,39.33
2023-05-25T05:50:12.126Z,40.60
2023-05-25T05:52:52.041Z,40.10
2023-05-25T05:55:30.718Z,40.07
2023-05-25T05:58:20.208Z,39.93
2023-05-25T06:01:05.843Z,45.10
2023-05-25T06:03:43.729Z,42.17
2023-05-25T06:06:21.823Z,43.17
2023-05-25T06:08:59.060Z,43.40
2023-05-25T06:11:36.833Z,40.47
2023-05-25T06:14:17.149Z,41.83
2023-05-25T06:16:54.549Z,42.27
2023-05-25T06:19:32.636Z,40.23
2023-05-25T06:22:12.420Z,40.33
2023-05-25T06:24:49.713Z,41.53
2023-05-25T06:27:25.265Z,40.50
2023-05-25T06:30:05.458Z,39.20
2023-05-25T06:32:46.021Z,37.88
2023-05-25T06:35:21.682Z,40.33
2023-05-25T06:37:58.891Z,37.17
2023-05-25T06:40:36.958Z,38.47
2023-05-25T06:43:17.667Z,39.27
2023-05-25T06:46:21.417Z,39.40
2023-05-25T06:49:00.567Z,40.20
2023-05-25T06:51:41.737Z,41.23
2023-05-25T06:54:16.706Z,37.77
2023-05-25T06:56:54.600Z,41.27
2023-05-25T06:59:39.030Z,39.50
2023-05-25T07:02:20.743Z,40.43
2023-05-25T07:04:58.565Z,38.53
2023-05-25T07:07:35.905Z,38.10
2023-05-25T07:10:24.852Z,39.73
2023-05-25T07:13:06.390Z,41.63
2023-05-25T07:15:46.736Z,40.83
2023-05-25T07:18:27.642Z,42.43
2023-05-25T07:21:05.370Z,40.73
2023-05-25T07:23:43.870Z,38.70
2023-05-25T07:26:27.428Z,40.53
2023-05-25T07:29:04.629Z,41.53
2023-05-25T07:31:40.692Z,43.70
2023-05-25T07:34:21.376Z,42.23
2023-05-25T07:37:02.236Z,44.03
2023-05-25T07:39:41.194Z,40.73
2023-05-25T07:42:22.988Z,43.63
2023-05-25T07:44:58.587Z,42.77
2023-05-25T07:47:37.149Z,38.37
2023-05-25T07:50:20.336Z,47.17
2023-05-25T07:53:06.501Z,47.80
2023-05-25T07:55:47.242Z,46.87
2023-05-25T07:58:28.370Z,49.53
2023-05-25T08:01:16.482Z,46.67
2023-05-25T08:03:58.337Z,45.07
2023-05-25T08:06:44.274Z,43.07
2023-05-25T08:09:25.637Z,42.53
2023-05-25T08:12:24.074Z,49.37
2023-05-25T08:15:13.188Z,45.47
2023-05-25T08:17:54.431Z,46.33
2023-05-25T08:20:33.827Z,44.03
2023-05-25T08:23:19.896Z,47.13
2023-05-25T08:25:57.517Z,47.03
2023-05-25T08:28:36.251Z,49.47
2023-05-25T08:31:15.536Z,47.23
2023-05-25T08:33:53.559Z,44.53
2023-05-25T08:36:42.917Z,45.20
2023-05-25T08:39:26.784Z,44.07
2023-05-25T08:42:03.749Z,40.77
2023-05-25T08:44:41.786Z,45.60
2023-05-25T08:47:23.106Z,41.70
2023-05-25T08:50:03.198Z,43.03
2023-05-25T08:52:42.047Z,40.97
2023-05-25T08:55:29.231Z,39.50
2023-05-25T08:58:12.683Z,41.03
2023-05-25T09:00:57.624Z,37.70
2023-05-25T09:03:35.804Z,37.00
2023-05-25T09:06:13.919Z,36.90
2023-05-25T09:08:55.311Z,37.73
2023-05-25T09:12:05.293Z,38.60
2023-05-25T09:14:49.110Z,34.33
2023-05-25T09:18:05.892Z,25.93
2023-05-25T09:21:24.377Z,24.70
2023-05-25T09:24:08.332Z,23.63
2023-05-25T09:26:50.736Z,24.30
2023-05-25T09:29:27.230Z,23.80
2023-05-25T09:32:08.289Z,24.27
2023-05-25T09:34:52.953Z,23.87
2023-05-25T09:37:30.025Z,25.67
2023-05-25T09:40:05.702Z,26.87
2023-05-25T09:42:47.952Z,25.50
2023-05-25T09:45:25.991Z,25.67
2023-05-25T09:48:07.162Z,24.77
2023-05-25T09:50:49.844Z,22.73
2023-05-25T09:53:30.879Z,20.00
2023-05-25T09:56:12.304Z,20.10
2023-05-25T09:59:28.102Z,21.23
2023-05-25T10:02:26.920Z,19.07
2023-05-25T10:05:25.965Z,19.47
2023-05-25T10:08:25.207Z,18.33
2023-05-25T10:11:23.232Z,18.30
2023-05-25T10:14:11.913Z,16.87
2023-05-25T10:16:52.161Z,18.40
2023-05-25T10:19:35.815Z,17.93
2023-05-25T10:22:22.208Z,15.27
2023-05-25T10:25:06.975Z,16.13
2023-05-25T10:28:01.221Z,16.20
2023-05-25T10:30:47.700Z,17.17
2023-05-25T10:33:27.658Z,15.50
2023-05-25T10:36:11.542Z,14.77
2023-05-25T10:38:47.907Z,14.53
2023-05-25T10:41:29.879Z,15.57
2023-05-25T10:44:08.688Z,14.30
2023-05-25T10:46:48.455Z,15.20
2023-05-25T10:49:47.319Z,14.60
2023-05-25T10:52:30.416Z,15.27
2023-05-25T10:55:13.870Z,14.03
2023-05-25T10:57:56.352Z,13.77
2023-05-25T11:00:39.928Z,14.73
2023-05-25T11:03:22.820Z,15.40
2023-05-25T11:05:59.672Z,22.57
2023-05-25T11:08:59.277Z,23.67
2023-05-25T11:12:11.820Z,30.23
2023-05-25T11:14:51.010Z,31.63
2023-05-25T11:17:34.119Z,33.63
2023-05-25T11:20:49.324Z,36.70
2023-05-25T11:23:44.218Z,36.53
2023-05-25T11:26:35.696Z,38.43
2023-05-25T11:29:29.626Z,40.23
2023-05-25T11:32:10.010Z,40.40
2023-05-25T11:34:56.942Z,39.17
2023-05-25T11:37:48.176Z,38.93
2023-05-25T11:40:33.324Z,37.97
2023-05-25T11:43:22.160Z,39.37
2023-05-25T11:46:16.018Z,36.83
2023-05-25T11:49:01.649Z,34.83
2023-05-25T11:51:42.790Z,34.33
2023-05-25T11:54:29.019Z,32.20
2023-05-25T11:57:08.059Z,27.90
2023-05-25T11:59:49.317Z,29.90
2023-05-25T12:02:35.141Z,28.97
2023-05-25T12:05:14.049Z,25.57
2023-05-25T12:07:56.155Z,25.80
2023-05-25T12:10:36.435Z,24.77
2023-05-25T12:13:16.615Z,26.03
2023-05-25T12:15:54.160Z,27.10
2023-05-25T12:18:32.946Z,24.60
2023-05-25T12:21:18.163Z,25.13
2023-05-25T12:24:01.147Z,23.70
2023-05-25T12:27:02.259Z,27.20
2023-05-25T12:29:40.901Z,28.40
2023-05-25T12:32:19.556Z,31.67
2023-05-25T12:35:02.924Z,34.17
2023-05-25T12:37:48.375Z,34.70
2023-05-25T12:40:33.418Z,33.47
2023-05-25T12:43:21.886Z,34.03
2023-05-25T12:46:00.237Z,34.30
2023-05-25T12:48:48.830Z,38.33
2023-05-25T12:51:30.372Z,38.97
2023-05-25T12:54:12.592Z,35.90
2023-05-25T12:57:08.278Z,38.20
2023-05-25T12:59:50.870Z,37.63
2023-05-25T13:02:29.909Z,37.80
2023-05-25T13:05:30.531Z,36.80
2023-05-25T13:08:12.400Z,36.13
2023-05-25T13:10:57.197Z,39.07
2023-05-25T13:13:51.342Z,37.80
2023-05-25T13:16:58.404Z,36.30
2023-05-25T13:19:39.659Z,34.43
2023-05-25T13:22:30.390Z,37.97
2023-05-25T13:25:18.574Z,37.73
2023-05-25T13:28:12.686Z,37.70
2023-05-25T13:30:55.424Z,37.67
2023-05-25T13:34:10.748Z,36.40
2023-05-25T13:36:56.869Z,35.20
2023-05-25T13:39:41.905Z,35.10
2023-05-25T13:42:26.174Z,35.67
2023-05-25T13:45:18.192Z,35.57
2023-05-25T13:48:09.172Z,35.20
2023-05-25T13:50:50.009Z,36.20
2023-05-25T13:53:30.546Z,34.70
2023-05-25T13:56:19.369Z,37.27
2023-05-25T13:59:12.817Z,37.33
2023-05-25T14:01:59.552Z,38.93
2023-05-25T14:04:43.928Z,38.73
2023-05-25T14:07:24.290Z,38.47
2023-05-25T14:10:10.252Z,37.90
2023-05-25T14:13:02.861Z,39.77
2023-05-25T14:15:46.741Z,37.23
2023-05-25T14:18:32.000Z,38.20
2023-05-25T14:21:27.834Z,38.20
2023-05-25T14:24:09.512Z,38.37
2023-05-25T14:27:01.593Z,38.17
2023-05-25T14:29:52.157Z,36.23
2023-05-25T14:32:41.755Z,38.90
2023-05-25T14:35:20.648Z,36.77
2023-05-25T14:38:09.151Z,35.47
2023-05-25T14:40:51.151Z,35.27
2023-05-25T14:43:37.720Z,36.03
2023-05-25T14:46:26.216Z,36.67
2023-05-25T14:49:05.175Z,36.87
2023-05-25T14:51:50.736Z,34.13
2023-05-25T14:54:35.927Z,35.93
2023-05-25T14:57:23.919Z,36.87
2023-05-25T15:00:23.656Z,37.40
2023-05-25T15:03:24.139Z,36.17
2023-05-25T15:06:18.702Z,38.63
2023-05-25T15:09:01.865Z,38.67
2023-05-25T15:12:01.664Z,37.67
2023-05-25T15:14:51.171Z,36.87
2023-05-25T15:17:37.012Z,37.27
2023-05-25T15:20:19.793Z,39.60
2023-05-25T15:23:07.658Z,38.03
2023-05-25T15:25:52.113Z,37.73
2023-05-25T15:28:41.492Z,38.60
2023-05-25T15:31:24.152Z,38.63
2023-05-25T15:34:12.568Z,36.37
2023-05-25T15:37:05.219Z,36.43
2023-05-25T15:39:47.068Z,38.67
2023-05-25T15:42:40.417Z,37.17
2023-05-25T15:45:23.968Z,38.17
2023-05-25T15:48:05.768Z,38.20
2023-05-25T15:50:51.389Z,36.80
2023-05-25T15:53:32.364Z,38.70
2023-05-25T15:56:16.530Z,37.77
2023-05-25T15:59:03.525Z,38.27
2023-05-25T16:02:09.994Z,38.50
2023-05-25T16:04:56.030Z,39.10
2023-05-25T16:07:50.702Z,37.07
2023-05-25T16:10:31.111Z,38.23
2023-05-25T16:13:22.109Z,39.13
2023-05-25T16:16:07.488Z,39.53
2023-05-25T16:18:44.272Z,38.83
2023-05-25T16:21:22.923Z,38.87
2023-05-25T16:24:14.304Z,40.93
2023-05-25T16:26:57.760Z,38.47
2023-05-25T16:29:34.473Z,38.70
2023-05-25T16:32:13.796Z,37.60
2023-05-25T16:34:54.052Z,39.57
2023-05-25T16:37:34.978Z,39.30
2023-05-25T16:40:19.014Z,39.13
2023-05-25T16:42:59.321Z,37.83
2023-05-25T16:45:44.637Z,37.20
2023-05-25T16:48:25.991Z,38.07
2023-05-25T16:51:18.260Z,37.90
2023-05-25T16:53:55.823Z,37.80
2023-05-25T16:56:39.678Z,37.20
2023-05-25T16:59:23.950Z,37.00
2023-05-25T17:02:04.525Z,38.23
2023-05-25T17:04:45.662Z,37.77
2023-05-25T17:07:23.302Z,36.53
2023-05-25T17:10:01.484Z,37.90
2023-05-25T17:12:40.412Z,36.60
2023-05-25T17:15:20.799Z,36.37
2023-05-25T17:18:01.960Z,36.83
2023-05-25T17:20:39.823Z,35.87
2023-05-25T17:23:18.323Z,35.57
2023-05-25T17:25:56.825Z,35.93
2023-05-25T17:28:44.145Z,34.37
2023-05-25T17:31:22.251Z,34.47
2023-05-25T17:33:59.185Z,34.80
2023-05-25T17:36:38.873Z,34.73
2023-05-25T17:39:16.209Z,34.70
2023-05-25T17:41:54.948Z,34.27
2023-05-25T17:44:37.227Z,35.43
2023-05-25T17:47:13.691Z,35.77
2023-05-25T17:49:51.872Z,33.40
2023-05-25T17:52:29.914Z,35.77
2023-05-25T17:55:09.287Z,34.00
2023-05-25T17:57:47.377Z,32.97
2023-05-25T18:00:27.587Z,33.00
2023-05-25T18:03:05.664Z,33.13
2023-05-25T18:05:40.813Z,33.37
2023-05-25T18:08:16.529Z,33.50
2023-05-25T18:10:54.467Z,33.93
2023-05-25T18:13:35.071Z,32.77
2023-05-25T18:16:15.148Z,31.83
2023-05-25T18:19:00.174Z,32.07
2023-05-25T18:21:37.492Z,32.33
2023-05-25T18:24:14.428Z,32.80
2023-05-25T18:26:54.212Z,34.53
2023-05-25T18:29:35.862Z,34.47
2023-05-25T18:32:14.586Z,34.53
2023-05-25T18:34:49.613Z,32.43
2023-05-25T18:37:30.966Z,34.40
2023-05-25T18:40:07.866Z,34.57
2023-05-25T18:42:44.304Z,34.13
2023-05-25T18:45:24.166Z,34.40
2023-05-25T18:48:10.996Z,33.20
2023-05-25T18:50:46.436Z,35.40
2023-05-25T18:53:23.325Z,36.60
2023-05-25T18:56:01.121Z,35.23
2023-05-25T18:58:37.799Z,33.93
2023-05-25T19:01:12.164Z,34.83
2023-05-25T19:03:49.885Z,35.13
2023-05-25T19:06:27.389Z,35.20
2023-05-25T19:09:05.473Z,35.70
2023-05-25T19:11:42.362Z,39.47
2023-05-25T19:14:16.926Z,36.37
2023-05-25T19:16:50.318Z,36.17
2023-05-25T19:19:26.561Z,36.47
2023-05-25T19:22:01.081Z,35.60
2023-05-25T19:24:36.676Z,34.17
2023-05-25T19:27:11.796Z,33.83
2023-05-25T19:29:47.606Z,33.03
2023-05-25T19:32:24.324Z,34.30
2023-05-25T19:35:02.300Z,34.60
2023-05-25T19:37:36.622Z,33.63
2023-05-25T19:40:10.414Z,35.20
2023-05-25T19:42:46.802Z,36.10
2023-05-25T19:45:21.510Z,34.53
2023-05-25T19:47:56.635Z,33.07
2023-05-25T19:50:32.149Z,35.93
2023-05-25T19:53:08.308Z,34.90
2023-05-25T19:55:44.536Z,34.73
2023-05-25T19:58:20.898Z,32.97
2023-05-25T20:00:54.813Z,32.57
2023-05-25T20:03:30.236Z,31.90
2023-05-25T20:06:08.901Z,32.53
2023-05-25T20:08:42.835Z,32.87
2023-05-25T20:11:17.088Z,32.07
2023-05-25T20:13:52.297Z,31.47
2023-05-25T20:16:27.093Z,34.10
2023-05-25T20:19:05.126Z,31.60
2023-05-25T20:21:42.102Z,33.80
2023-05-25T20:24:17.148Z,33.37
2023-05-25T20:26:52.018Z,34.53
2023-05-25T20:29:27.194Z,32.00
2023-05-25T20:32:03.346Z,32.97
2023-05-25T20:34:38.741Z,30.87
2023-05-25T20:37:16.376Z,31.13
2023-05-25T20:39:50.819Z,32.93
2023-05-25T20:42:25.190Z,32.63
2023-05-25T20:45:01.103Z,32.27
2023-05-25T20:47:34.800Z,33.17
2023-05-25T20:50:09.934Z,36.10
2023-05-25T20:52:47.555Z,32.93
2023-05-25T20:55:23.718Z,33.60
2023-05-25T20:57:58.481Z,32.87
2023-05-25T21:00:31.644Z,32.50
2023-05-25T21:03:06.351Z,32.37
2023-05-25T21:05:39.769Z,33.97
2023-05-25T21:08:16.563Z,33.00
2023-05-25T21:10:51.162Z,31.47
2023-05-25T21:13:25.863Z,32.07
2023-05-25T21:16:00.704Z,34.57
2023-05-25T21:18:35.055Z,33.03
2023-05-25T21:21:09.264Z,31.67
2023-05-25T21:23:45.393Z,30.83
2023-05-25T21:26:21.225Z,32.47
2023-05-25T21:28:56.522Z,32.83
2023-05-25T21:31:31.036Z,31.97
2023-05-25T21:34:05.499Z,32.30
2023-05-25T21:36:40.652Z,32.17
2023-05-25T21:39:17.918Z,31.63
2023-05-25T21:41:52.354Z,32.40
2023-05-25T21:44:28.395Z,32.67
2023-05-25T21:47:06.244Z,31.83
2023-05-25T21:49:42.220Z,33.80
2023-05-25T21:52:26.625Z,32.50
2023-05-25T21:55:04.077Z,30.90
2023-05-25T21:57:38.471Z,32.80
2023-05-25T22:00:16.604Z,32.77
2023-05-25T22:02:52.162Z,32.97
2023-05-25T22:05:29.373Z,33.20
2023-05-25T22:08:07.388Z,32.20
2023-05-25T22:10:55.541Z,32.10
2023-05-25T22:13:29.630Z,33.43
2023-05-25T22:16:07.049Z,33.33
2023-05-25T22:18:44.146Z,34.67
2023-05-25T22:21:20.538Z,32.83
2023-05-25T22:23:57.526Z,33.30
2023-05-25T22:26:34.079Z,35.40
2023-05-25T22:29:13.090Z,34.60
2023-05-25T22:31:48.535Z,35.13
2023-05-25T22:34:24.147Z,35.33
2023-05-25T22:37:00.946Z,34.73
2023-05-25T22:39:36.694Z,34.93
2023-05-25T22:42:15.586Z,34.73
2023-05-25T22:44:52.769Z,35.03
2023-05-25T22:47:28.227Z,36.27
2023-05-25T22:50:07.442Z,33.80
2023-05-25T22:52:42.789Z,34.20
2023-05-25T22:55:21.862Z,34.57
2023-05-25T22:58:00.453Z,35.63
2023-05-25T23:00:35.176Z,33.53
2023-05-25T23:03:13.156Z,34.13
2023-05-25T23:05:47.996Z,33.80
2023-05-25T23:08:22.521Z,34.80
2023-05-25T23:10:59.604Z,34.00
2023-05-25T23:13:40.473Z,33.00
2023-05-25T23:16:16.806Z,33.67
2023-05-25T23:18:54.891Z,33.20
2023-05-25T23:21:30.403Z,32.97
2023-05-25T23:24:08.906Z,32.53
2023-05-25T23:26:45.341Z,31.87
2023-05-25T23:29:26.113Z,32.90
2023-05-25T23:32:06.344Z,32.30
2023-05-25T23:34:45.844Z,32.20
2023-05-25T23:37:20.781Z,31.27
2023-05-25T23:39:58.260Z,31.87
2023-05-25T23:42:41.641Z,31.23
2023-05-25T23:45:20.448Z,29.50
2023-05-25T23:47:58.547Z,30.10
2023-05-25T23:50:34.746Z,31.40
2023-05-25T23:53:12.983Z,32.00
2023-05-25T23:55:50.659Z,31.80
2023-05-25T23:58:26.368Z,30.87
